Time;durP1;ratioP1;P1;durP2;ratioP2;P2;SDS_P1;SDS_P2;PMS_P1;PMS_P2;Temp;Humidity;BMP_temperature;BMP_pressure;BME280_temperature;BME280_humidity;BME280_pressure;Samples;Min_cycle;Max_cycle;Signal;HPM_P1;HPM_P2
2022/01/13 00:02:04;;;;;;;13.55;6.60;;;3.70;99.90;;;;;;5093303;28;20024;-89
2022/01/13 00:04:30;;;;;;;20.73;7.97;;;3.80;99.90;;;;;;5075772;28;20036;-89
2022/01/13 00:07:00;;;;;;;28.95;8.45;;;3.90;99.90;;;;;;5094047;28;20020;-89
2022/01/13 00:09:25;;;;;;;15.73;7.57;;;4.00;99.90;;;;;;5093865;28;20510;-90
2022/01/13 00:11:52;;;;;;;14.63;7.80;;;4.10;99.90;;;;;;5075998;28;20028;-89
2022/01/13 00:17:22;;;;;;;18.92;7.32;;;4.10;99.90;;;;;;5093414;28;20434;-89
2022/01/13 00:19:56;;;;;;;13.80;6.00;;;4.20;99.90;;;;;;5075459;28;20028;-89
2022/01/13 00:24:54;;;;;;;19.38;6.88;;;4.20;99.90;;;;;;5093434;28;20488;-89
2022/01/13 00:27:23;;;;;;;16.90;7.00;;;4.10;99.90;;;;;;5093360;28;20016;-90
2022/01/13 00:29:49;;;;;;;18.45;7.45;;;4.00;99.90;;;;;;5093547;28;20012;-90
2022/01/13 00:32:16;;;;;;;18.92;7.60;;;3.90;99.90;;;;;;5074764;28;20031;-90
2022/01/13 00:34:43;;;;;;;23.08;8.80;;;3.80;99.90;;;;;;5093663;28;20412;-90
2022/01/13 00:37:09;;;;;;;15.75;7.72;;;3.70;99.90;;;;;;5093144;28;20028;-90
2022/01/13 00:39:50;;;;;;;17.08;7.40;;;3.70;99.90;;;;;;5075254;28;20024;-90
2022/01/13 00:42:16;;;;;;;19.88;7.65;;;3.80;99.90;;;;;;5075283;28;20027;-90
2022/01/13 00:44:48;;;;;;;18.65;8.10;;;3.80;99.90;;;;;;5093036;28;20464;-90
2022/01/13 00:47:14;;;;;;;16.40;6.97;;;3.80;99.90;;;;;;5093003;28;20020;-89
2022/01/13 00:49:39;;;;;;;13.48;7.63;;;3.90;99.90;;;;;;5075319;28;20020;-89
2022/01/13 00:52:07;;;;;;;11.38;6.93;;;3.80;99.90;;;;;;5093001;28;20062;-89
2022/01/13 00:54:34;;;;;;;16.02;7.38;;;3.70;99.90;;;;;;5075071;28;20377;-89
2022/01/13 00:57:00;;;;;;;15.52;8.13;;;3.70;99.90;;;;;;5093198;28;20028;-89
2022/01/13 00:59:29;;;;;;;13.65;7.47;;;3.70;99.90;;;;;;5093074;28;20476;-89
2022/01/13 01:01:55;;;;;;;16.52;7.47;;;3.70;99.90;;;;;;5092127;28;20031;-89
2022/01/13 01:04:21;;;;;;;15.80;7.95;;;3.60;99.90;;;;;;5093126;28;20380;-89
2022/01/13 01:06:55;;;;;;;12.45;6.78;;;3.60;99.90;;;;;;5092323;28;20472;-90
2022/01/13 01:09:38;;;;;;;21.05;9.10;;;3.50;99.90;;;;;;5093159;28;20095;-90
2022/01/13 01:12:08;;;;;;;15.10;7.25;;;3.60;99.90;;;;;;5075259;28;20751;-90
2022/01/13 01:15:06;;;;;;;21.48;8.25;;;3.70;99.90;;;;;;5092846;28;20039;-90
2022/01/13 01:17:45;;;;;;;14.63;6.65;;;3.70;99.90;;;;;;5092532;28;20556;-89
2022/01/13 01:20:11;;;;;;;15.45;6.88;;;3.70;99.90;;;;;;5092342;28;20024;-89
2022/01/13 01:23:15;;;;;;;19.58;7.50;;;3.60;99.90;;;;;;5074923;28;20383;-89
2022/01/13 01:27:57;;;;;;;19.45;8.45;;;3.50;99.90;;;;;;5092668;28;20555;-90
2022/01/13 01:30:37;;;;;;;20.08;9.13;;;3.40;99.90;;;;;;5092565;28;20078;-89
2022/01/13 01:33:03;;;;;;;14.07;7.78;;;3.40;99.90;;;;;;5092187;28;20062;-90
2022/01/13 01:35:29;;;;;;;15.50;8.82;;;3.30;99.90;;;;;;5094937;28;20502;-89
2022/01/13 01:37:55;;;;;;;23.13;8.93;;;3.30;99.90;;;;;;5078656;28;20073;-90
2022/01/13 01:40:22;;;;;;;21.05;8.10;;;3.30;99.90;;;;;;5095418;28;20024;-90
2022/01/13 01:42:48;;;;;;;16.17;8.65;;;3.30;99.90;;;;;;5096239;28;20153;-89
2022/01/13 01:45:18;;;;;;;14.75;7.75;;;3.30;99.90;;;;;;5078455;28;20114;-90
2022/01/13 01:47:45;;;;;;;17.92;7.65;;;3.20;99.90;;;;;;5095891;28;20499;-89
2022/01/13 01:50:18;;;;;;;13.27;6.55;;;3.30;99.90;;;;;;5096378;28;20028;-89
2022/01/13 01:52:50;;;;;;;14.02;7.68;;;3.20;99.90;;;;;;5095636;28;20107;-89
2022/01/13 01:55:18;;;;;;;16.83;7.90;;;3.20;99.90;;;;;;5096432;28;20026;-90
2022/01/13 01:57:49;;;;;;;17.17;8.25;;;3.20;99.90;;;;;;5096453;28;20357;-90
2022/01/13 02:00:18;;;;;;;19.02;7.20;;;3.30;99.90;;;;;;5096024;28;20498;-89
2022/01/13 02:02:45;;;;;;;13.02;7.68;;;3.30;99.90;;;;;;5077761;28;20032;-89
2022/01/13 02:05:11;;;;;;;25.15;8.27;;;3.30;99.90;;;;;;5096059;28;20037;-88
2022/01/13 02:07:38;;;;;;;10.23;6.13;;;3.30;99.90;;;;;;5078067;28;20035;-89
2022/01/13 02:10:07;;;;;;;14.43;6.55;;;3.30;99.90;;;;;;5096407;28;20020;-90
2022/01/13 02:12:36;;;;;;;12.65;7.07;;;3.40;99.90;;;;;;5096241;28;20040;-90
2022/01/13 02:15:27;;;;;;;11.93;6.18;;;3.40;99.90;;;;;;5096004;28;20024;-90
2022/01/13 02:18:06;;;;;;;10.50;5.93;;;3.40;99.90;;;;;;5083440;28;20061;-90
2022/01/13 02:20:45;;;;;;;10.82;6.15;;;3.30;99.90;;;;;;5095985;28;20028;-89
2022/01/13 02:23:11;;;;;;;13.27;6.20;;;3.30;99.90;;;;;;5095316;28;20028;-90
2022/01/13 02:25:43;;;;;;;13.95;6.88;;;3.30;99.90;;;;;;5077594;28;20032;-90
2022/01/13 02:28:08;;;;;;;11.77;5.90;;;3.30;99.90;;;;;;5077494;28;20552;-89
2022/01/13 02:30:34;;;;;;;12.38;7.13;;;3.20;99.90;;;;;;5095869;28;20032;-90
2022/01/13 02:33:08;;;;;;;8.93;5.90;;;3.20;99.90;;;;;;5095343;28;20024;-89
2022/01/13 02:35:34;;;;;;;10.18;5.55;;;3.20;99.90;;;;;;5095299;28;20422;-89
2022/01/13 02:38:12;;;;;;;12.10;6.05;;;3.10;99.90;;;;;;5095588;28;20111;-89
2022/01/13 02:40:38;;;;;;;14.10;7.22;;;3.10;99.90;;;;;;5095385;28;20471;-89
2022/01/13 02:43:06;;;;;;;15.52;6.68;;;3.00;99.90;;;;;;5094645;28;20020;-90
2022/01/13 02:45:37;;;;;;;14.43;6.82;;;3.00;99.90;;;;;;5094971;28;20034;-89
2022/01/13 02:50:47;;;;;;;12.55;5.65;;;3.00;99.90;;;;;;5075288;28;20085;-89
2022/01/13 02:53:22;;;;;;;8.00;5.28;;;2.90;99.90;;;;;;5075165;28;20033;-89
2022/01/13 02:55:47;;;;;;;9.40;4.93;;;2.80;99.90;;;;;;5074998;28;20024;-90
2022/01/13 02:58:15;;;;;;;9.00;5.50;;;2.90;99.90;;;;;;5075281;28;20025;-93
2022/01/13 03:00:41;;;;;;;11.10;5.75;;;2.90;99.90;;;;;;5091713;28;20024;-92
2022/01/13 03:03:07;;;;;;;12.93;6.07;;;2.80;99.90;;;;;;5091650;28;20056;-93
2022/01/13 03:05:37;;;;;;;10.55;4.97;;;2.80;99.90;;;;;;5091750;28;20374;-93
2022/01/13 03:08:11;;;;;;;14.98;6.13;;;2.80;99.90;;;;;;5092141;28;20469;-93
2022/01/13 03:10:36;;;;;;;8.30;5.05;;;2.70;99.90;;;;;;5092110;28;20016;-93
2022/01/13 03:13:03;;;;;;;9.20;4.68;;;2.60;99.90;;;;;;5092079;28;20495;-93
2022/01/13 03:15:29;;;;;;;14.48;4.55;;;2.50;99.90;;;;;;5091676;28;20020;-91
2022/01/13 03:18:07;;;;;;;11.60;5.03;;;2.50;99.90;;;;;;5090990;28;20051;-92
2022/01/13 03:20:32;;;;;;;9.00;4.75;;;2.40;99.90;;;;;;5074282;28;20024;-92
2022/01/13 03:23:04;;;;;;;17.05;5.47;;;2.30;99.90;;;;;;5074362;28;20089;-92
2022/01/13 03:25:30;;;;;;;10.25;5.10;;;2.20;99.90;;;;;;5074102;28;20029;-93
2022/01/13 03:28:13;;;;;;;9.55;5.00;;;2.30;99.90;;;;;;5074701;28;20017;-93
2022/01/13 03:30:39;;;;;;;9.43;4.97;;;2.20;99.90;;;;;;5074571;28;20476;-94
2022/01/13 03:33:09;;;;;;;14.05;5.72;;;2.20;99.90;;;;;;5074597;28;20020;-93
2022/01/13 03:35:38;;;;;;;14.77;6.00;;;2.10;99.90;;;;;;5075105;28;20021;-94
2022/01/13 03:38:05;;;;;;;21.67;5.82;;;2.10;99.90;;;;;;5077223;28;20031;-90
2022/01/13 03:40:33;;;;;;;14.15;5.68;;;2.00;99.90;;;;;;5076483;28;20024;-89
2022/01/13 03:43:01;;;;;;;10.15;5.75;;;2.10;99.90;;;;;;5076324;28;20096;-89
2022/01/13 03:45:28;;;;;;;15.43;6.85;;;2.00;99.90;;;;;;5076160;28;20032;-90
2022/01/13 03:47:54;;;;;;;14.65;6.75;;;1.90;99.90;;;;;;5075938;28;20024;-90
2022/01/13 03:50:25;;;;;;;16.20;7.30;;;1.90;99.90;;;;;;5094266;28;20481;-90
2022/01/13 03:52:57;;;;;;;19.23;6.70;;;1.90;99.90;;;;;;5094131;28;20107;-89
2022/01/13 03:55:38;;;;;;;14.75;6.38;;;1.80;99.90;;;;;;5094149;28;20024;-89
2022/01/13 03:58:21;;;;;;;17.15;6.95;;;1.70;99.90;;;;;;5093641;28;20031;-89
2022/01/13 04:01:27;;;;;;;10.25;6.68;;;1.80;99.90;;;;;;5075782;28;20027;-90
2022/01/13 04:03:52;;;;;;;10.50;6.60;;;1.70;99.90;;;;;;5094029;28;20109;-90
2022/01/13 04:06:21;;;;;;;18.20;6.22;;;1.70;99.90;;;;;;5093864;28;20039;-90
2022/01/13 04:08:48;;;;;;;13.98;6.13;;;1.70;99.90;;;;;;5075977;28;20365;-90
2022/01/13 04:11:18;;;;;;;9.85;6.35;;;1.70;99.90;;;;;;5075941;28;20028;-90
2022/01/13 04:16:14;;;;;;;11.95;5.93;;;1.70;99.90;;;;;;5093549;28;20024;-90
2022/01/13 04:18:40;;;;;;;15.13;5.18;;;1.60;99.90;;;;;;5093632;28;20499;-90
2022/01/13 04:21:06;;;;;;;10.02;5.45;;;1.60;99.90;;;;;;5093653;28;20024;-90
2022/01/13 04:23:44;;;;;;;18.83;6.60;;;1.60;99.90;;;;;;5093060;28;20060;-88
2022/01/13 04:26:11;;;;;;;14.80;6.03;;;1.60;99.90;;;;;;5109136;28;20070;-90
2022/01/13 04:28:45;;;;;;;12.75;6.10;;;1.60;99.90;;;;;;5093723;28;20023;-90
2022/01/13 04:31:12;;;;;;;10.27;4.63;;;1.60;99.90;;;;;;5100041;28;20024;-89
2022/01/13 04:33:40;;;;;;;14.77;5.20;;;1.60;99.90;;;;;;5113812;28;20016;-89
2022/01/13 04:36:08;;;;;;;17.58;6.07;;;1.70;99.90;;;;;;5113698;28;20020;-89
2022/01/13 04:38:59;;;;;;;9.73;5.22;;;1.60;99.90;;;;;;5113664;28;20077;-89
2022/01/13 04:41:36;;;;;;;11.50;5.13;;;1.70;99.90;;;;;;5113497;28;20432;-89
2022/01/13 04:44:07;;;;;;;10.68;5.82;;;1.60;99.90;;;;;;5113756;28;20015;-89
2022/01/13 04:46:33;;;;;;;16.80;5.75;;;1.60;99.90;;;;;;5113278;28;20379;-87
2022/01/13 04:49:00;;;;;;;13.30;5.97;;;1.50;99.90;;;;;;5113704;28;20028;-89
2022/01/13 04:51:26;;;;;;;13.52;5.50;;;1.50;99.90;;;;;;5095063;28;20103;-89
2022/01/13 04:53:52;;;;;;;13.65;6.38;;;1.50;99.90;;;;;;5113190;28;20020;-88
2022/01/13 04:56:29;;;;;;;14.18;5.28;;;1.50;99.90;;;;;;5113585;28;20379;-89
2022/01/13 04:58:55;;;;;;;12.82;5.45;;;1.50;99.90;;;;;;5094768;28;20114;-89
2022/01/13 05:01:27;;;;;;;14.80;5.97;;;1.50;99.90;;;;;;5113158;28;20027;-88
2022/01/13 05:03:52;;;;;;;12.45;5.95;;;1.50;99.90;;;;;;5113158;28;20027;-88
2022/01/13 05:06:28;;;;;;;11.32;5.88;;;1.50;99.90;;;;;;5113339;28;20069;-89
2022/01/13 05:08:54;;;;;;;9.25;5.65;;;1.50;99.90;;;;;;5094223;28;20024;-89
2022/01/13 05:11:20;;;;;;;16.55;5.43;;;1.50;99.90;;;;;;5113214;28;20126;-89
2022/01/13 05:13:49;;;;;;;8.57;5.25;;;1.50;99.90;;;;;;5113098;28;20024;-90
2022/01/13 05:16:23;;;;;;;11.65;5.22;;;1.50;99.90;;;;;;5094829;28;20048;-89
2022/01/13 05:19:11;;;;;;;15.55;5.65;;;1.50;99.90;;;;;;5112782;28;20089;-89
2022/01/13 05:24:26;;;;;;;13.45;5.03;;;1.50;99.90;;;;;;5113464;28;20488;-89
2022/01/13 05:26:52;;;;;;;10.05;4.35;;;1.50;99.90;;;;;;5112950;28;20399;-88
2022/01/13 05:29:28;;;;;;;12.00;6.47;;;1.50;99.90;;;;;;5113067;28;20464;-89
2022/01/13 05:31:54;;;;;;;12.48;4.68;;;1.50;99.90;;;;;;5081520;28;20021;-89
2022/01/13 05:34:20;;;;;;;8.23;4.13;;;1.50;99.90;;;;;;5113191;28;20478;-89
2022/01/13 05:37:27;;;;;;;5.95;3.95;;;1.50;99.90;;;;;;5113012;28;20032;-90
2022/01/13 05:39:53;;;;;;;7.47;4.20;;;1.50;99.90;;;;;;5094681;28;20049;-89
2022/01/13 05:42:18;;;;;;;7.88;3.95;;;1.50;99.90;;;;;;5112974;28;20030;-89
2022/01/13 05:44:59;;;;;;;11.05;4.38;;;1.50;99.90;;;;;;5112854;28;20028;-89
2022/01/13 05:47:25;;;;;;;8.52;4.15;;;1.50;99.90;;;;;;5112753;28;20023;-89
2022/01/13 05:49:50;;;;;;;12.48;4.15;;;1.50;99.90;;;;;;5112944;28;20020;-89
2022/01/13 05:52:31;;;;;;;7.30;4.00;;;1.50;99.90;;;;;;5112803;28;20020;-89
2022/01/13 05:54:57;;;;;;;8.70;3.63;;;1.40;99.90;;;;;;5113067;28;20032;-90
2022/01/13 05:57:22;;;;;;;7.65;4.20;;;1.40;99.90;;;;;;5112970;28;20379;-89
2022/01/13 05:59:49;;;;;;;6.88;3.75;;;1.50;99.90;;;;;;5113018;28;20023;-90
2022/01/13 06:02:15;;;;;;;7.07;3.72;;;1.50;99.90;;;;;;5094286;28;20032;-89
2022/01/13 06:04:40;;;;;;;16.33;4.32;;;1.60;99.90;;;;;;5094571;28;20032;-89
2022/01/13 06:07:10;;;;;;;6.20;3.60;;;1.60;99.90;;;;;;5112840;28;20020;-90
2022/01/13 06:09:35;;;;;;;11.95;5.05;;;1.50;99.90;;;;;;5094409;28;20428;-89
2022/01/13 06:12:03;;;;;;;10.63;4.72;;;1.50;99.90;;;;;;5111998;28;20098;-89
2022/01/13 06:14:34;;;;;;;10.65;5.20;;;1.50;99.90;;;;;;5112802;28;20015;-90
2022/01/13 06:17:00;;;;;;;9.20;4.32;;;1.50;99.90;;;;;;5112283;28;20048;-89
2022/01/13 06:19:25;;;;;;;8.05;4.35;;;1.50;99.90;;;;;;5094616;28;20478;-89
2022/01/13 06:21:51;;;;;;;19.60;5.82;;;1.50;99.90;;;;;;5097129;28;20016;-90
2022/01/13 06:24:32;;;;;;;12.50;5.80;;;1.50;99.90;;;;;;5116300;28;20491;-89
2022/01/13 06:26:57;;;;;;;12.73;5.00;;;1.40;99.90;;;;;;5116210;28;20479;-89
2022/01/13 06:29:23;;;;;;;10.55;4.95;;;1.40;99.90;;;;;;5116399;28;20023;-88
2022/01/13 06:31:57;;;;;;;17.05;5.45;;;1.50;99.90;;;;;;5115102;28;20028;-88
2022/01/13 06:34:23;;;;;;;34.90;14.05;;;1.40;99.90;;;;;;5116083;28;20019;-88
2022/01/13 06:36:48;;;;;;;34.30;17.83;;;1.40;99.90;;;;;;5115424;28;20047;-88
2022/01/13 06:39:25;;;;;;;29.40;17.70;;;1.40;99.90;;;;;;5097877;28;20093;-89
2022/01/13 06:41:51;;;;;;;23.83;12.55;;;1.40;99.90;;;;;;5115276;28;20016;-88
2022/01/13 06:44:22;;;;;;;22.13;11.20;;;1.40;99.90;;;;;;5108332;28;20456;-88
2022/01/13 06:46:48;;;;;;;17.45;9.93;;;1.30;99.90;;;;;;5114091;28;20110;-88
2022/01/13 06:49:14;;;;;;;18.00;9.75;;;1.30;99.90;;;;;;5116074;28;20492;-88
2022/01/13 06:51:39;;;;;;;17.38;8.93;;;1.30;99.90;;;;;;5112616;28;20153;-88
2022/01/13 06:54:05;;;;;;;18.88;8.52;;;1.30;99.90;;;;;;5114983;28;20051;-88
2022/01/13 06:56:31;;;;;;;22.27;9.30;;;1.20;99.90;;;;;;5101791;28;20034;-88
2022/01/13 06:58:56;;;;;;;17.08;9.10;;;1.30;99.90;;;;;;5092153;28;20391;-88
2022/01/13 07:01:23;;;;;;;20.23;9.18;;;1.30;99.90;;;;;;5091961;28;20020;-88
2022/01/13 07:03:49;;;;;;;27.25;8.20;;;1.30;99.90;;;;;;5094886;28;20498;-88
2022/01/13 07:06:15;;;;;;;16.13;7.07;;;1.30;99.90;;;;;;5094803;28;20027;-88
2022/01/13 07:08:40;;;;;;;19.08;7.10;;;1.40;99.90;;;;;;5094629;28;20024;-88
2022/01/13 07:11:06;;;;;;;17.00;6.68;;;1.30;99.90;;;;;;5076592;28;20472;-88
2022/01/13 07:13:32;;;;;;;16.20;6.75;;;1.30;99.90;;;;;;5094782;28;20023;-88
2022/01/13 07:16:00;;;;;;;24.25;8.00;;;1.30;99.90;;;;;;5095678;28;20090;-87
2022/01/13 07:18:27;;;;;;;16.63;7.72;;;1.30;99.90;;;;;;5108665;28;20043;-88
2022/01/13 07:20:55;;;;;;;25.90;8.88;;;1.30;99.90;;;;;;5114031;28;20070;-88
2022/01/13 07:23:21;;;;;;;22.67;8.30;;;1.30;99.90;;;;;;5090321;28;20018;-88
2022/01/13 07:25:46;;;;;;;19.15;8.02;;;1.30;99.90;;;;;;5114430;28;20031;-88
2022/01/13 07:28:12;;;;;;;22.80;8.38;;;1.30;99.90;;;;;;5114543;28;20103;-88
2022/01/13 07:30:38;;;;;;;22.30;8.52;;;1.30;99.90;;;;;;5112099;28;20068;-87
2022/01/13 07:33:03;;;;;;;19.67;7.53;;;1.30;99.90;;;;;;5093601;28;20027;-88
2022/01/13 07:35:29;;;;;;;30.83;9.82;;;1.30;99.90;;;;;;5092935;28;20032;-88
2022/01/13 07:37:55;;;;;;;24.17;11.02;;;1.30;99.90;;;;;;5091289;28;20061;-88
2022/01/13 07:40:21;;;;;;;20.63;9.00;;;1.30;99.90;;;;;;5096415;28;20020;-88
2022/01/13 07:42:49;;;;;;;30.48;12.02;;;1.40;99.90;;;;;;5096159;28;20027;-88
2022/01/13 07:45:16;;;;;;;22.65;10.48;;;1.30;99.90;;;;;;5094031;28;20020;-88
2022/01/13 07:47:42;;;;;;;24.88;11.05;;;1.30;99.90;;;;;;5093998;28;20016;-88
2022/01/13 07:50:10;;;;;;;27.63;10.90;;;1.20;99.90;;;;;;5092874;28;20024;-88
2022/01/13 07:52:35;;;;;;;26.67;10.48;;;1.30;99.90;;;;;;5094088;28;20020;-88
2022/01/13 07:55:02;;;;;;;26.52;11.10;;;1.30;99.90;;;;;;5093705;28;20043;-88
2022/01/13 07:57:27;;;;;;;28.17;11.25;;;1.40;99.90;;;;;;5093778;28;20438;-88
2022/01/13 07:59:53;;;;;;;37.53;11.77;;;1.40;99.90;;;;;;5093694;28;20024;-88
2022/01/13 08:02:19;;;;;;;38.47;13.98;;;1.50;99.90;;;;;;5092921;28;20047;-88
2022/01/13 08:04:44;;;;;;;32.78;12.23;;;1.50;99.90;;;;;;5093245;28;20388;-88
2022/01/13 08:07:10;;;;;;;26.50;10.93;;;1.50;99.90;;;;;;5088372;28;20483;-88
2022/01/13 08:09:36;;;;;;;38.17;12.88;;;1.50;99.90;;;;;;5113507;28;20031;-88
2022/01/13 08:12:02;;;;;;;34.10;11.95;;;1.50;99.90;;;;;;5113967;28;20023;-88
2022/01/13 08:14:28;;;;;;;30.58;11.88;;;1.50;99.90;;;;;;5113789;28;20024;-88
2022/01/13 08:16:57;;;;;;;27.20;10.68;;;1.60;99.90;;;;;;5112613;28;20020;-88
2022/01/13 08:22:07;;;;;;;23.67;9.35;;;1.60;99.90;;;;;;5082099;28;20051;-88
2022/01/13 08:24:32;;;;;;;32.00;12.68;;;1.70;99.90;;;;;;5092582;28;20032;-89
2022/01/13 08:26:58;;;;;;;30.92;10.98;;;1.70;99.90;;;;;;5093337;28;20432;-89
2022/01/13 08:29:23;;;;;;;20.27;9.73;;;1.80;99.90;;;;;;5093211;28;20028;-89
2022/01/13 08:31:52;;;;;;;29.77;10.50;;;1.80;99.90;;;;;;5092691;28;20028;-89
2022/01/13 08:34:18;;;;;;;25.48;9.52;;;1.90;99.90;;;;;;5075071;28;20074;-88
2022/01/13 08:36:46;;;;;;;26.98;9.82;;;1.90;99.90;;;;;;5074779;28;20051;-87
2022/01/13 08:39:14;;;;;;;25.65;10.63;;;2.00;99.90;;;;;;5093129;28;20153;-89
2022/01/13 08:41:41;;;;;;;23.27;11.15;;;2.10;99.90;;;;;;5092808;28;20073;-89
2022/01/13 08:44:07;;;;;;;24.85;10.15;;;2.10;99.90;;;;;;5092880;28;20032;-89
2022/01/13 08:46:32;;;;;;;30.75;11.55;;;2.20;99.90;;;;;;5097326;28;20491;-89
2022/01/13 08:48:58;;;;;;;30.08;10.70;;;2.20;99.90;;;;;;5112827;28;20019;-89
2022/01/13 08:51:24;;;;;;;26.08;12.10;;;2.30;99.90;;;;;;5112882;28;20032;-89
2022/01/13 08:53:50;;;;;;;23.52;10.43;;;2.40;99.90;;;;;;5112624;28;20058;-89
2022/01/13 08:56:15;;;;;;;27.67;11.82;;;2.40;99.90;;;;;;5113150;28;20036;-88
2022/01/13 08:58:42;;;;;;;34.72;14.02;;;2.50;99.90;;;;;;5113058;28;20106;-88
2022/01/13 09:01:08;;;;;;;23.80;11.43;;;2.50;99.90;;;;;;5112413;28;20546;-88
2022/01/13 09:03:35;;;;;;;32.55;11.95;;;2.60;99.90;;;;;;5112959;28;20368;-88
2022/01/13 09:06:02;;;;;;;33.33;13.18;;;2.60;99.90;;;;;;5112728;28;20060;-88
2022/01/13 09:08:28;;;;;;;30.88;13.20;;;2.70;99.90;;;;;;5094435;28;20135;-88
2022/01/13 09:10:54;;;;;;;30.25;12.20;;;2.70;99.90;;;;;;5094748;28;20059;-88
2022/01/13 09:13:20;;;;;;;28.88;11.98;;;2.70;99.90;;;;;;5112750;28;20070;-88
2022/01/13 09:15:52;;;;;;;31.77;13.18;;;2.80;99.90;;;;;;5112240;28;20028;-88
2022/01/13 09:18:29;;;;;;;25.80;11.43;;;2.80;99.90;;;;;;5112504;28;20051;-88
2022/01/13 09:20:55;;;;;;;27.77;11.65;;;2.80;99.90;;;;;;5098198;28;20082;-88
2022/01/13 09:23:20;;;;;;;35.85;12.68;;;2.80;99.90;;;;;;5073519;28;20431;-88
2022/01/13 09:25:46;;;;;;;30.42;14.35;;;2.90;99.90;;;;;;5092170;28;20490;-88
2022/01/13 09:28:12;;;;;;;49.03;18.35;;;3.00;99.90;;;;;;5092085;28;20038;-88
2022/01/13 09:30:39;;;;;;;43.95;16.42;;;3.00;99.90;;;;;;5091482;28;20094;-88
2022/01/13 09:33:06;;;;;;;46.42;18.20;;;3.00;99.90;;;;;;5073920;28;20032;-87
2022/01/13 09:35:39;;;;;;;41.13;18.27;;;3.10;99.90;;;;;;5091725;28;20388;-88
2022/01/13 09:38:04;;;;;;;41.25;18.13;;;3.10;99.90;;;;;;5091423;28;20407;-88
2022/01/13 09:40:31;;;;;;;36.08;15.68;;;3.20;99.90;;;;;;5091564;28;20031;-88
2022/01/13 09:42:58;;;;;;;43.28;17.33;;;3.20;99.90;;;;;;5092120;28;20511;-88
2022/01/13 09:45:23;;;;;;;42.78;18.80;;;3.20;99.90;;;;;;5091888;28;20421;-88
2022/01/13 09:47:50;;;;;;;43.63;17.48;;;3.30;99.90;;;;;;5092217;28;20076;-88
2022/01/13 09:50:20;;;;;;;43.70;16.88;;;3.30;99.90;;;;;;5074240;28;20020;-87
2022/01/13 09:52:49;;;;;;;38.92;17.23;;;3.30;99.90;;;;;;5091834;28;20055;-88
2022/01/13 09:55:16;;;;;;;42.33;17.05;;;3.40;99.90;;;;;;5092573;28;20042;-87
2022/01/13 09:57:45;;;;;;;42.88;18.85;;;3.40;99.90;;;;;;5077830;28;20357;-88
2022/01/13 10:00:25;;;;;;;35.53;16.55;;;3.40;99.90;;;;;;5078005;28;20032;-86
2022/01/13 10:02:51;;;;;;;33.63;15.02;;;3.50;99.90;;;;;;5096427;28;20028;-87
2022/01/13 10:05:18;;;;;;;51.10;18.80;;;3.50;99.90;;;;;;5096362;28;20028;-87
2022/01/13 10:08:03;;;;;;;33.10;14.60;;;3.50;99.90;;;;;;5095865;28;20071;-86
2022/01/13 10:10:31;;;;;;;36.58;15.75;;;3.60;99.90;;;;;;5095669;28;20028;-86
2022/01/13 10:13:04;;;;;;;31.15;14.93;;;3.70;99.90;;;;;;5095110;28;20082;-86
2022/01/13 10:18:42;;;;;;;30.90;14.50;;;3.80;99.90;;;;;;5094997;28;20078;-86
2022/01/13 10:21:11;;;;;;;42.10;17.63;;;3.80;99.90;;;;;;5088705;28;20034;-86
2022/01/13 10:23:36;;;;;;;33.55;16.33;;;3.80;99.90;;;;;;5095214;28;20111;-86
2022/01/13 10:26:12;;;;;;;39.72;16.02;;;3.90;99.90;;;;;;5095249;28;20115;-87
2022/01/13 10:28:38;;;;;;;34.97;15.82;;;4.00;99.90;;;;;;5081879;28;20031;-86
2022/01/13 10:31:04;;;;;;;30.75;13.85;;;4.00;99.90;;;;;;5094741;28;20103;-86
2022/01/13 10:33:30;;;;;;;31.58;13.27;;;4.00;99.90;;;;;;5094992;28;20031;-87
2022/01/13 10:36:11;;;;;;;33.40;14.13;;;4.10;99.90;;;;;;5095177;28;20388;-87
2022/01/13 10:38:53;;;;;;;32.97;13.40;;;4.10;99.90;;;;;;5079182;28;20119;-87
2022/01/13 10:42:11;;;;;;;30.83;14.15;;;4.20;99.90;;;;;;5094785;28;20391;-87
2022/01/13 10:44:25;;;;;;;16.92;9.15;;;4.30;99.90;;;;;;5094516;28;20444;-86
2022/01/13 10:47:01;;;;;;;27.30;10.30;;;4.50;99.90;;;;;;5094497;28;20062;-87
2022/01/13 10:49:34;;;;;;;14.35;8.07;;;4.80;99.90;;;;;;5088679;28;20047;-86
2022/01/13 10:52:35;;;;;;;15.68;9.18;;;5.10;99.90;;;;;;5094510;28;20108;-87
2022/01/13 10:55:07;;;;;;;17.83;8.65;;;5.30;99.90;;;;;;5049112;28;20097;-86
2022/01/13 10:57:33;;;;;;;26.00;12.65;;;5.40;99.90;;;;;;5083373;28;20123;-86
2022/01/13 10:59:59;;;;;;;49.70;22.52;;;5.60;99.90;;;;;;5094104;28;20028;-86
2022/01/13 11:02:27;;;;;;;52.53;24.80;;;5.60;99.90;;;;;;5094133;28;20496;-86
2022/01/13 11:04:53;;;;;;;41.97;21.20;;;5.60;99.90;;;;;;5076409;28;20028;-86
2022/01/13 11:07:23;;;;;;;44.53;20.17;;;5.60;99.90;;;;;;5093194;28;20464;-86
2022/01/13 11:09:52;;;;;;;45.85;21.55;;;5.50;99.90;;;;;;5098816;28;20502;-86
2022/01/13 11:12:39;;;;;;;47.92;20.98;;;5.50;99.90;;;;;;5098726;28;20016;-86
2022/01/13 11:15:11;;;;;;;44.90;19.15;;;5.40;99.90;;;;;;5079071;28;20030;-86
2022/01/13 11:17:38;;;;;;;45.50;20.27;;;5.40;99.90;;;;;;5109837;28;20112;-86
2022/01/13 11:20:08;;;;;;;48.65;21.00;;;5.30;99.90;;;;;;5096716;28;20024;-86
2022/01/13 11:22:37;;;;;;;38.70;16.55;;;5.30;99.90;;;;;;5075249;28;20067;-86
2022/01/13 11:25:07;;;;;;;39.17;17.45;;;5.30;99.90;;;;;;5079062;28;20040;-86
2022/01/13 11:27:33;;;;;;;32.78;15.85;;;5.30;99.90;;;;;;5094059;28;20020;-86
2022/01/13 11:30:00;;;;;;;38.95;17.33;;;5.20;99.90;;;;;;5101586;28;20012;-86
2022/01/13 11:32:26;;;;;;;34.67;16.27;;;5.30;99.90;;;;;;5096297;28;20019;-86
2022/01/13 11:34:55;;;;;;;27.25;15.88;;;5.30;99.90;;;;;;5112449;28;20031;-86
2022/01/13 11:37:25;;;;;;;36.28;18.00;;;5.30;99.90;;;;;;5112489;28;20024;-86
2022/01/13 11:43:30;;;;;;;38.65;18.58;;;5.30;99.90;;;;;;5113904;28;20084;-85
2022/01/13 11:45:59;;;;;;;36.55;16.27;;;5.20;99.90;;;;;;5093703;28;20039;-86
2022/01/13 11:48:28;;;;;;;36.92;16.98;;;5.20;99.90;;;;;;5095313;28;20414;-86
2022/01/13 11:51:15;;;;;;;38.97;18.30;;;5.20;99.90;;;;;;5093386;28;20031;-86
2022/01/13 11:53:57;;;;;;;37.28;17.98;;;5.30;99.90;;;;;;5088965;28;20030;-86
2022/01/13 11:56:23;;;;;;;27.98;14.85;;;5.40;99.90;;;;;;5065334;28;20027;-86
2022/01/13 11:58:50;;;;;;;34.67;17.13;;;5.40;99.90;;;;;;5103178;28;20464;-86
2022/01/13 12:01:28;;;;;;;40.35;19.30;;;5.50;99.90;;;;;;5105658;28;20029;-86
2022/01/13 12:03:59;;;;;;;41.10;18.65;;;5.50;99.90;;;;;;5093618;28;20115;-86
2022/01/13 12:06:34;;;;;;;32.25;14.65;;;5.60;99.90;;;;;;5092443;28;20035;-86
2022/01/13 12:09:04;;;;;;;41.13;18.33;;;5.60;99.90;;;;;;5094726;28;20012;-86
2022/01/13 12:11:43;;;;;;;32.65;16.33;;;5.60;99.90;;;;;;5109103;28;20023;-86
2022/01/13 12:14:25;;;;;;;42.95;20.05;;;5.70;99.90;;;;;;5096989;28;20028;-85
2022/01/13 12:17:26;;;;;;;39.00;19.15;;;5.70;99.90;;;;;;5097529;28;20484;-86
2022/01/13 12:19:59;;;;;;;48.17;22.60;;;5.80;99.90;;;;;;5101393;28;20386;-85
2022/01/13 12:22:45;;;;;;;46.88;21.95;;;5.80;99.90;;;;;;5093140;28;20062;-86
2022/01/13 12:25:17;;;;;;;42.40;19.90;;;5.80;99.90;;;;;;5093781;28;20036;-86
2022/01/13 12:28:10;;;;;;;41.20;19.80;;;5.80;99.90;;;;;;5093317;28;20028;-86
2022/01/13 12:30:36;;;;;;;43.40;21.15;;;5.80;99.90;;;;;;5093252;28;20052;-86
2022/01/13 12:33:09;;;;;;;47.45;22.00;;;5.90;99.90;;;;;;5092882;28;20043;-86
2022/01/13 12:35:34;;;;;;;57.03;24.20;;;5.90;99.90;;;;;;5093244;28;20017;-86
2022/01/13 12:38:28;;;;;;;42.25;20.80;;;5.90;99.90;;;;;;5075161;28;20483;-86
2022/01/13 12:41:02;;;;;;;41.13;20.83;;;5.90;99.90;;;;;;5113380;28;20037;-86
2022/01/13 12:43:37;;;;;;;36.80;19.23;;;5.90;99.90;;;;;;5113841;28;20027;-85
2022/01/13 12:46:13;;;;;;;32.28;16.50;;;5.90;99.90;;;;;;5083834;28;20446;-86
2022/01/13 12:48:42;;;;;;;34.55;17.20;;;5.90;99.90;;;;;;5093094;28;20016;-86
2022/01/13 12:51:27;;;;;;;39.45;19.13;;;5.90;99.90;;;;;;5074834;28;20109;-85
2022/01/13 12:53:54;;;;;;;36.78;16.67;;;5.90;99.90;;;;;;5093011;28;20485;-86
2022/01/13 12:56:31;;;;;;;30.42;14.90;;;6.10;99.90;;;;;;5093010;28;20384;-86
2022/01/13 12:59:03;;;;;;;44.35;20.05;;;6.10;99.90;;;;;;5101399;28;20448;-85
2022/01/13 13:01:38;;;;;;;25.27;11.85;;;6.20;99.90;;;;;;5112675;28;20020;-86
2022/01/13 13:04:05;;;;;;;;;;;6.30;99.90;;;;;;5113683;28;20023;-85
2022/01/13 13:06:40;;;;;;;7.60;3.65;;;6.60;99.90;;;;;;5097078;28;20416;-86
2022/01/13 13:09:08;;;;;;;3.80;2.60;;;7.20;99.90;;;;;;5092617;28;20051;-86
2022/01/13 13:11:44;;;;;;;3.95;2.50;;;7.50;99.90;;;;;;5092517;28;20027;-86
2022/01/13 13:14:19;;;;;;;4.13;2.38;;;8.00;99.90;;;;;;5075042;28;20115;-85
2022/01/13 13:16:47;;;;;;;;;;;8.30;99.90;;;;;;5103061;28;20435;-87
2022/01/13 13:22:48;;;;;;;3.13;2.30;;;8.60;99.90;;;;;;5108013;28;20104;-90
2022/01/13 13:25:32;;;;;;;4.22;2.03;;;8.70;99.90;;;;;;5072859;28;20383;-93
2022/01/13 13:28:17;;;;;;;3.97;2.40;;;8.80;99.90;;;;;;5104269;28;20481;-91
2022/01/13 13:30:48;;;;;;;5.80;2.83;;;8.80;99.90;;;;;;5096167;28;20026;-91